Terminal Aerodrome Forecast
Issued by NWS

Home | Current Version | Previous Version | Text Only | Print | Product List | Glossary On
Versions: 1 2 3 4 5 6 7 8 9 10 11 12 13 14 15 16 17 18
000
FTUS46 KMTR 250600 AAA
TAFSJC
TAF AMD
KSJC 250649Z 2507/2606 13008KT P6SM -RA BKN025 OVC035
     FM251000 16015G20KT P6SM -RA OVC015
     FM251600 30017G25KT P6SM FEW030 SCT100
     FM260300 30012KT P6SM FEW030 SCT100=

USA.gov is the U.S. government's official web portal to all federal, state and local government web resources and services.